Time;durP1;ratioP1;P1;durP2;ratioP2;P2;SDS_P1;SDS_P2;PMS_P1;PMS_P2;Temp;Humidity;BMP_temperature;BMP_pressure;BME280_temperature;BME280_humidity;BME280_pressure;Samples;Min_cycle;Max_cycle;Signal;HPM_P1;HPM_P2
2022/04/10 00:00:43;;;;;;;34.33;3.72;;;5.20;99.90;;;;;;5052527;28;20025;-75
2022/04/10 00:03:09;;;;;;;26.90;4.70;;;5.20;99.90;;;;;;5053954;28;20067;-75
2022/04/10 00:05:35;;;;;;;23.83;4.35;;;5.20;99.90;;;;;;5053832;28;20052;-74
2022/04/10 00:08:01;;;;;;;29.77;4.00;;;5.20;99.90;;;;;;5053887;28;20022;-75
2022/04/10 00:10:26;;;;;;;28.73;4.20;;;5.20;99.90;;;;;;5053512;28;20032;-75
2022/04/10 00:12:52;;;;;;;28.65;4.60;;;5.30;99.90;;;;;;5053951;28;20040;-75
2022/04/10 00:15:18;;;;;;;40.45;5.68;;;5.30;99.90;;;;;;5053291;28;20020;-76
2022/04/10 00:17:43;;;;;;;26.88;4.35;;;5.30;99.90;;;;;;5054080;28;20021;-76
2022/04/10 00:20:11;;;;;;;25.67;3.63;;;5.20;99.90;;;;;;5053531;28;20029;-75
2022/04/10 00:22:47;;;;;;;30.83;4.07;;;5.10;99.90;;;;;;5053413;28;20017;-75
2022/04/10 00:25:18;;;;;;;19.73;2.65;;;5.10;99.90;;;;;;5053010;28;20506;-75
2022/04/10 00:27:44;;;;;;;22.45;3.17;;;5.10;99.90;;;;;;5053387;28;20114;-75
2022/04/10 00:30:11;;;;;;;27.55;3.92;;;5.00;99.90;;;;;;5053110;28;20082;-75
2022/04/10 00:32:37;;;;;;;26.48;3.80;;;5.00;99.90;;;;;;5053373;28;20043;-75
2022/04/10 00:35:07;;;;;;;22.83;3.13;;;4.90;99.90;;;;;;5053273;28;20471;-74
2022/04/10 00:37:34;;;;;;;20.98;2.95;;;4.90;99.90;;;;;;5052944;28;20466;-75
2022/04/10 00:40:00;;;;;;;20.13;3.42;;;5.00;99.90;;;;;;5051655;28;20041;-75
2022/04/10 00:42:34;;;;;;;20.35;3.33;;;5.00;99.90;;;;;;5053135;28;20057;-75
2022/04/10 00:45:00;;;;;;;28.45;3.25;;;4.90;99.90;;;;;;5052988;28;20036;-75
2022/04/10 00:47:26;;;;;;;24.10;3.75;;;4.90;99.90;;;;;;5052819;28;20025;-75
2022/04/10 00:49:51;;;;;;;36.70;3.90;;;4.90;99.90;;;;;;5053132;28;20497;-75
2022/04/10 00:52:21;;;;;;;36.38;4.90;;;4.90;99.90;;;;;;5052810;28;20100;-75
2022/04/10 00:54:47;;;;;;;29.00;3.33;;;4.80;99.90;;;;;;5054014;28;20081;-76
2022/04/10 00:57:12;;;;;;;25.25;3.22;;;4.80;99.90;;;;;;5052543;28;20025;-75
2022/04/10 00:59:39;;;;;;;24.35;3.33;;;4.70;99.90;;;;;;5053063;28;20082;-75
2022/04/10 01:02:05;;;;;;;26.92;3.58;;;4.70;99.90;;;;;;5053047;28;20166;-74
2022/04/10 01:04:31;;;;;;;25.73;2.88;;;4.70;99.90;;;;;;5052917;28;20116;-75
2022/04/10 01:06:59;;;;;;;23.48;3.15;;;4.70;99.90;;;;;;5052796;28;20021;-75
2022/04/10 01:09:24;;;;;;;23.70;3.00;;;4.70;99.90;;;;;;5053035;28;20024;-75
2022/04/10 01:11:52;;;;;;;26.92;3.13;;;4.70;99.90;;;;;;5053242;28;20096;-75
2022/04/10 01:14:19;;;;;;;28.48;3.08;;;4.60;99.90;;;;;;5052071;28;20028;-75
2022/04/10 01:16:46;;;;;;;21.08;3.08;;;4.60;99.90;;;;;;5052682;28;20385;-75
2022/04/10 01:19:12;;;;;;;17.15;2.95;;;4.60;99.90;;;;;;5052843;28;20027;-75
2022/04/10 01:21:44;;;;;;;19.50;2.92;;;4.60;99.90;;;;;;5051387;28;20099;-76
2022/04/10 01:24:13;;;;;;;25.35;3.72;;;4.60;99.90;;;;;;5052915;28;20064;-76
2022/04/10 01:26:39;;;;;;;22.90;3.20;;;4.60;99.90;;;;;;5053260;28;20104;-76
2022/04/10 01:29:08;;;;;;;17.58;3.13;;;4.60;99.90;;;;;;5052531;28;20087;-76
2022/04/10 01:31:38;;;;;;;20.23;3.38;;;4.70;99.90;;;;;;5052365;28;20028;-74
2022/04/10 01:34:10;;;;;;;23.27;3.50;;;4.60;99.90;;;;;;5053281;28;20506;-76
2022/04/10 01:36:37;;;;;;;18.67;2.90;;;4.50;99.90;;;;;;5053380;28;20029;-76
2022/04/10 01:39:04;;;;;;;25.77;3.78;;;4.50;99.90;;;;;;5053207;28;20025;-75
2022/04/10 01:41:30;;;;;;;24.27;4.57;;;4.60;99.90;;;;;;5053531;28;20059;-78
2022/04/10 01:43:58;;;;;;;18.40;3.22;;;4.60;99.90;;;;;;5045049;28;20029;-76
2022/04/10 01:46:25;;;;;;;20.15;3.65;;;4.70;99.90;;;;;;5033524;28;20033;-77
2022/04/10 01:48:51;;;;;;;23.13;3.58;;;4.80;99.90;;;;;;5033767;28;20498;-75
2022/04/10 01:51:17;;;;;;;22.55;3.42;;;4.80;99.90;;;;;;5033516;28;20072;-76
2022/04/10 01:53:43;;;;;;;24.13;3.10;;;4.90;99.90;;;;;;5033054;28;20025;-75
2022/04/10 01:56:09;;;;;;;25.23;3.42;;;4.90;99.90;;;;;;5032915;28;20029;-75
2022/04/10 01:58:37;;;;;;;22.25;3.38;;;5.00;99.90;;;;;;5033340;28;20383;-75
2022/04/10 02:01:05;;;;;;;20.90;3.63;;;4.90;99.90;;;;;;5035874;28;20032;-75
2022/04/10 02:03:30;;;;;;;31.30;4.20;;;4.90;99.90;;;;;;5041586;28;20383;-75
2022/04/10 02:05:56;;;;;;;27.30;3.53;;;4.80;99.90;;;;;;5038935;28;20369;-76
2022/04/10 02:08:22;;;;;;;20.25;3.67;;;4.80;99.90;;;;;;5031932;28;20033;-75
2022/04/10 02:10:48;;;;;;;29.63;4.25;;;4.90;99.90;;;;;;5031273;28;20081;-74
2022/04/10 02:13:13;;;;;;;15.20;3.38;;;4.90;99.90;;;;;;5032610;28;20076;-75
2022/04/10 02:15:39;;;;;;;22.40;3.92;;;4.90;99.90;;;;;;5032236;28;20021;-75
2022/04/10 02:18:06;;;;;;;12.77;3.05;;;4.90;99.90;;;;;;5032651;28;20116;-74
2022/04/10 02:20:32;;;;;;;17.45;3.33;;;4.80;99.90;;;;;;5032181;28;20103;-75
2022/04/10 02:22:57;;;;;;;18.05;3.70;;;4.70;99.90;;;;;;5032279;28;20471;-75
2022/04/10 02:25:23;;;;;;;14.40;3.88;;;4.60;99.90;;;;;;5032299;28;20037;-75
2022/04/10 02:27:48;;;;;;;22.02;3.65;;;4.40;99.90;;;;;;5032292;28;20499;-75
2022/04/10 02:30:14;;;;;;;13.20;3.30;;;4.30;99.90;;;;;;5031997;28;20025;-75
2022/04/10 02:32:41;;;;;;;18.20;3.78;;;4.30;99.90;;;;;;5032312;28;20371;-75
2022/04/10 02:35:09;;;;;;;12.40;2.95;;;4.10;99.90;;;;;;5032487;28;20096;-76
2022/04/10 02:37:35;;;;;;;11.23;3.65;;;4.10;99.90;;;;;;5032508;28;20022;-76
2022/04/10 02:40:03;;;;;;;14.45;3.10;;;4.00;99.90;;;;;;5032863;28;20029;-76
2022/04/10 02:42:29;;;;;;;14.18;3.53;;;4.00;99.90;;;;;;5032446;28;20542;-77
2022/04/10 02:44:55;;;;;;;16.42;3.50;;;3.90;99.90;;;;;;5032341;28;20092;-75
2022/04/10 02:47:20;;;;;;;12.95;2.80;;;3.90;99.90;;;;;;5032292;28;20023;-75
2022/04/10 02:49:47;;;;;;;11.85;2.67;;;3.80;99.90;;;;;;5032907;28;20053;-75
2022/04/10 02:52:12;;;;;;;9.38;2.88;;;3.80;99.90;;;;;;5031981;28;20021;-74
2022/04/10 02:54:38;;;;;;;9.38;2.55;;;3.70;99.90;;;;;;5031950;28;20032;-74
2022/04/10 02:57:04;;;;;;;8.77;2.42;;;3.70;99.90;;;;;;5031758;28;20115;-74
2022/04/10 02:59:29;;;;;;;8.30;2.63;;;3.60;99.90;;;;;;5031859;28;20022;-74
2022/04/10 03:01:55;;;;;;;9.95;2.70;;;3.60;99.90;;;;;;5031989;28;20033;-75
2022/04/10 03:04:20;;;;;;;9.82;2.85;;;3.50;99.90;;;;;;5031882;28;20022;-75
2022/04/10 03:06:46;;;;;;;15.18;2.53;;;3.50;99.90;;;;;;5031672;28;20033;-75
2022/04/10 03:09:11;;;;;;;10.20;3.13;;;3.50;99.90;;;;;;5031880;28;20387;-75
2022/04/10 03:11:37;;;;;;;8.05;2.35;;;3.50;99.90;;;;;;5032020;28;20029;-74
2022/04/10 03:14:03;;;;;;;11.02;2.63;;;3.60;99.90;;;;;;5031742;28;20076;-74
2022/04/10 03:16:28;;;;;;;8.07;2.42;;;3.50;99.90;;;;;;5035369;28;20036;-74
2022/04/10 03:18:54;;;;;;;12.77;3.67;;;3.60;99.90;;;;;;5036095;28;20032;-75
2022/04/10 03:21:19;;;;;;;12.65;3.50;;;3.60;99.90;;;;;;5035998;28;20433;-77
2022/04/10 03:23:45;;;;;;;14.02;3.72;;;3.60;99.90;;;;;;5035874;28;20544;-75
2022/04/10 03:26:11;;;;;;;13.20;3.47;;;3.50;99.90;;;;;;5035713;28;20040;-76
2022/04/10 03:28:36;;;;;;;16.33;3.80;;;3.50;99.90;;;;;;5036189;28;20091;-74
2022/04/10 03:31:02;;;;;;;10.48;3.97;;;3.50;99.90;;;;;;5036111;28;20118;-74
2022/04/10 03:33:28;;;;;;;16.17;4.25;;;3.40;99.90;;;;;;5036902;28;20032;-75
2022/04/10 03:35:53;;;;;;;17.92;4.13;;;3.40;99.90;;;;;;5035426;28;20029;-74
2022/04/10 03:38:19;;;;;;;24.73;4.43;;;3.40;99.90;;;;;;5035564;28;20467;-74
2022/04/10 03:40:45;;;;;;;19.45;4.22;;;3.40;99.90;;;;;;5035221;28;20185;-75
2022/04/10 03:43:11;;;;;;;15.25;3.80;;;3.30;99.90;;;;;;5035658;28;20521;-74
2022/04/10 03:45:41;;;;;;;21.48;3.90;;;3.30;99.90;;;;;;5035561;28;20497;-74
2022/04/10 03:48:07;;;;;;;15.90;3.95;;;3.30;99.90;;;;;;5035389;28;20022;-74
2022/04/10 03:50:34;;;;;;;19.02;4.82;;;3.30;99.90;;;;;;5035102;28;20037;-73
2022/04/10 03:53:00;;;;;;;18.02;4.25;;;3.40;99.90;;;;;;5035297;28;20044;-73
2022/04/10 03:55:26;;;;;;;17.55;3.30;;;3.40;99.90;;;;;;5036210;28;20021;-74
2022/04/10 03:57:52;;;;;;;25.80;4.00;;;3.30;99.90;;;;;;5035434;28;20021;-74
2022/04/10 04:00:18;;;;;;;31.80;3.67;;;3.40;99.90;;;;;;5037410;28;20421;-75
2022/04/10 04:02:45;;;;;;;16.80;3.67;;;3.40;99.90;;;;;;5033704;28;20048;-75
2022/04/10 04:05:10;;;;;;;25.15;3.67;;;3.40;99.90;;;;;;5035187;28;20033;-74
2022/04/10 04:07:36;;;;;;;20.35;3.50;;;3.30;99.90;;;;;;5034729;28;20026;-74
2022/04/10 04:10:03;;;;;;;16.58;3.20;;;3.40;99.90;;;;;;5035056;28;20048;-75
2022/04/10 04:12:29;;;;;;;16.75;3.95;;;3.40;99.90;;;;;;5034747;28;20033;-75
2022/04/10 04:14:54;;;;;;;20.55;3.95;;;3.50;99.90;;;;;;5034672;28;20479;-74
2022/04/10 04:17:20;;;;;;;28.73;5.13;;;3.50;99.90;;;;;;5034313;28;20028;-74
2022/04/10 04:19:49;;;;;;;26.13;5.00;;;3.50;99.90;;;;;;5033392;28;20506;-74
2022/04/10 04:22:15;;;;;;;18.52;4.68;;;3.60;99.90;;;;;;5034713;28;20032;-74
2022/04/10 04:24:41;;;;;;;24.23;5.65;;;3.60;99.90;;;;;;5038856;28;20033;-74
2022/04/10 04:27:06;;;;;;;20.48;4.65;;;3.50;99.90;;;;;;5040984;28;20026;-74
2022/04/10 04:29:32;;;;;;;44.65;5.57;;;3.60;99.90;;;;;;5041869;28;20032;-74
2022/04/10 04:31:57;;;;;;;25.27;5.32;;;3.60;99.90;;;;;;5042384;28;20041;-74
2022/04/10 04:34:23;;;;;;;31.13;5.63;;;3.70;99.90;;;;;;5038837;28;20030;-75
2022/04/10 04:36:49;;;;;;;18.05;5.13;;;3.70;99.90;;;;;;5036028;28;20071;-75
2022/04/10 04:39:14;;;;;;;27.58;6.07;;;3.70;99.90;;;;;;5034836;28;20061;-75
2022/04/10 04:41:40;;;;;;;30.42;5.55;;;3.70;99.90;;;;;;5040676;28;20514;-75
2022/04/10 04:44:05;;;;;;;25.17;5.80;;;3.70;99.90;;;;;;5034974;28;20086;-74
2022/04/10 04:46:31;;;;;;;34.42;7.35;;;3.70;99.90;;;;;;5036178;28;20033;-75
2022/04/10 04:48:56;;;;;;;38.92;6.60;;;3.80;99.90;;;;;;5034658;28;20052;-75
2022/04/10 04:51:22;;;;;;;29.20;5.95;;;3.80;99.90;;;;;;5034162;28;20041;-75
2022/04/10 04:53:47;;;;;;;28.92;5.82;;;3.80;99.90;;;;;;5034188;28;20032;-75
2022/04/10 04:56:13;;;;;;;26.63;5.60;;;3.80;99.90;;;;;;5033780;28;20084;-75
2022/04/10 04:58:38;;;;;;;36.70;6.22;;;3.80;99.90;;;;;;5034050;28;20449;-74
2022/04/10 05:01:04;;;;;;;29.92;5.50;;;3.80;99.90;;;;;;5033781;28;20028;-74
2022/04/10 05:03:29;;;;;;;29.25;5.72;;;3.90;99.90;;;;;;5032399;28;20036;-74
2022/04/10 05:05:55;;;;;;;35.90;6.68;;;3.90;99.90;;;;;;5033490;28;20045;-74
2022/04/10 05:08:20;;;;;;;40.10;5.78;;;3.90;99.90;;;;;;5033853;28;20494;-73
2022/04/10 05:10:46;;;;;;;36.00;5.70;;;4.00;99.90;;;;;;5033716;28;20083;-74
2022/04/10 05:13:12;;;;;;;30.10;5.82;;;4.10;99.90;;;;;;5033904;28;20424;-75
2022/04/10 05:15:38;;;;;;;33.35;5.05;;;4.10;99.90;;;;;;5034996;28;20098;-76
2022/04/10 05:18:03;;;;;;;40.05;6.45;;;4.10;99.90;;;;;;5035628;28;20029;-74
2022/04/10 05:20:29;;;;;;;35.78;5.60;;;4.10;99.90;;;;;;5033409;28;20034;-75
2022/04/10 05:22:55;;;;;;;31.70;5.82;;;4.00;99.90;;;;;;5033125;28;20596;-76
2022/04/10 05:25:21;;;;;;;34.58;6.00;;;4.10;99.90;;;;;;5032195;28;20022;-75
2022/04/10 05:27:46;;;;;;;32.30;5.32;;;4.20;99.90;;;;;;5032397;28;20075;-76
2022/04/10 05:30:12;;;;;;;28.17;5.80;;;4.20;99.90;;;;;;5034019;28;20181;-74
2022/04/10 05:32:42;;;;;;;27.17;4.97;;;4.30;99.90;;;;;;5032656;28;20033;-77
2022/04/10 05:35:08;;;;;;;35.70;6.35;;;4.30;99.90;;;;;;5032596;28;20482;-74
2022/04/10 05:37:34;;;;;;;38.10;5.30;;;4.20;99.90;;;;;;5032196;28;20033;-74
2022/04/10 05:39:59;;;;;;;37.08;5.32;;;4.20;99.90;;;;;;5032594;28;20040;-74
2022/04/10 05:42:25;;;;;;;30.63;5.13;;;4.20;99.90;;;;;;5033277;28;20029;-74
2022/04/10 05:44:50;;;;;;;40.55;5.57;;;4.30;99.90;;;;;;5031982;28;20095;-74
2022/04/10 05:47:17;;;;;;;31.80;5.68;;;4.30;99.90;;;;;;5032813;28;20052;-74
2022/04/10 05:49:42;;;;;;;28.60;5.28;;;4.30;99.90;;;;;;5033001;28;20028;-74
2022/04/10 05:52:08;;;;;;;34.72;5.50;;;4.40;99.90;;;;;;5033111;28;20029;-74
2022/04/10 05:54:33;;;;;;;37.97;5.28;;;4.30;99.90;;;;;;5033072;28;20478;-74
2022/04/10 05:56:59;;;;;;;39.60;6.10;;;4.40;99.90;;;;;;5036526;28;20108;-75
2022/04/10 05:59:25;;;;;;;26.35;5.13;;;4.40;99.90;;;;;;5032563;28;20368;-74
2022/04/10 06:01:50;;;;;;;33.67;5.75;;;4.50;99.90;;;;;;5033145;28;20029;-75
2022/04/10 06:04:17;;;;;;;30.65;6.10;;;4.50;99.90;;;;;;5032965;28;20128;-74
2022/04/10 06:06:42;;;;;;;31.80;5.40;;;4.50;99.90;;;;;;5032942;28;20025;-74
2022/04/10 06:09:08;;;;;;;38.30;5.72;;;4.50;99.90;;;;;;5032989;28;20434;-75
2022/04/10 06:11:34;;;;;;;31.60;4.85;;;4.50;99.90;;;;;;5032436;28;20025;-75
2022/04/10 06:13:59;;;;;;;30.95;4.97;;;4.60;99.90;;;;;;5032769;28;20387;-74
2022/04/10 06:16:25;;;;;;;23.50;4.60;;;4.70;99.90;;;;;;5032226;28;20038;-74
2022/04/10 06:18:50;;;;;;;32.80;5.35;;;4.80;99.90;;;;;;5032672;28;20379;-76
2022/04/10 06:21:16;;;;;;;31.42;4.93;;;4.80;99.90;;;;;;5032906;28;20079;-75
2022/04/10 06:23:41;;;;;;;28.55;5.22;;;5.00;99.90;;;;;;5032696;28;20025;-74
2022/04/10 06:26:07;;;;;;;28.08;5.00;;;5.10;99.90;;;;;;5032034;28;20026;-75
2022/04/10 06:28:32;;;;;;;32.17;4.95;;;5.10;99.90;;;;;;5033119;28;20033;-75
2022/04/10 06:30:58;;;;;;;32.63;4.50;;;5.20;99.90;;;;;;5033424;28;20116;-74
2022/04/10 06:33:23;;;;;;;28.35;4.28;;;5.30;99.90;;;;;;5032724;28;20109;-74
2022/04/10 06:35:49;;;;;;;26.63;3.88;;;5.20;99.90;;;;;;5037696;28;20101;-74
2022/04/10 06:38:17;;;;;;;24.42;4.22;;;5.20;99.90;;;;;;5043340;28;20025;-74
2022/04/10 06:40:44;;;;;;;33.70;4.10;;;5.30;99.90;;;;;;5031464;28;20478;-75
2022/04/10 06:43:10;;;;;;;20.83;3.63;;;5.30;99.90;;;;;;5032244;28;20109;-74
2022/04/10 06:45:35;;;;;;;15.15;3.08;;;5.30;99.90;;;;;;5030643;28;20108;-75
2022/04/10 06:48:02;;;;;;;18.17;2.92;;;5.40;99.90;;;;;;5032229;28;20037;-73
2022/04/10 06:50:28;;;;;;;27.13;3.92;;;5.40;99.90;;;;;;5031366;28;20025;-73
2022/04/10 06:52:53;;;;;;;19.95;2.92;;;5.40;99.90;;;;;;5031115;28;20091;-72
2022/04/10 06:55:19;;;;;;;15.75;3.17;;;5.40;99.90;;;;;;5028736;28;20034;-73
2022/04/10 06:57:44;;;;;;;22.30;3.22;;;5.40;99.90;;;;;;5031035;28;20036;-72
2022/04/10 07:00:10;;;;;;;21.98;3.53;;;5.50;99.90;;;;;;5030584;28;20029;-72
2022/04/10 07:02:36;;;;;;;19.10;3.38;;;5.50;99.90;;;;;;5030366;28;20057;-72
2022/04/10 07:05:01;;;;;;;18.60;2.97;;;5.60;99.90;;;;;;5030910;28;20040;-73
2022/04/10 07:07:27;;;;;;;19.48;3.47;;;5.50;99.90;;;;;;5030137;28;20394;-73
2022/04/10 07:09:53;;;;;;;21.45;3.78;;;5.40;99.90;;;;;;5031116;28;20053;-73
2022/04/10 07:12:19;;;;;;;19.33;3.50;;;5.40;99.90;;;;;;5031040;28;20034;-73
2022/04/10 07:14:44;;;;;;;17.60;4.13;;;5.30;99.90;;;;;;5031102;28;20029;-73
2022/04/10 07:17:10;;;;;;;27.10;4.13;;;5.30;99.90;;;;;;5031138;28;20022;-74
2022/04/10 07:19:35;;;;;;;26.85;4.45;;;5.40;99.90;;;;;;5030673;28;20391;-73
2022/04/10 07:24:46;;;;;;;27.63;4.22;;;5.40;99.90;;;;;;5030762;28;20557;-73
2022/04/10 07:27:11;;;;;;;25.40;3.72;;;5.50;99.90;;;;;;5030538;28;20057;-74
2022/04/10 07:29:37;;;;;;;24.45;3.95;;;5.50;99.90;;;;;;5030425;28;20123;-73
2022/04/10 07:32:04;;;;;;;31.65;5.45;;;5.60;99.90;;;;;;5030395;28;20036;-73
2022/04/10 07:34:29;;;;;;;35.92;4.55;;;5.80;99.90;;;;;;5030717;28;20017;-74
2022/04/10 07:36:55;;;;;;;25.25;3.97;;;5.80;99.90;;;;;;5031131;28;20168;-74
2022/04/10 07:39:21;;;;;;;26.15;4.45;;;5.90;99.90;;;;;;5030248;28;20029;-73
2022/04/10 07:41:46;;;;;;;28.00;5.18;;;5.90;99.90;;;;;;5031164;28;20057;-74
2022/04/10 07:44:12;;;;;;;28.08;5.38;;;6.00;99.90;;;;;;5032722;28;20025;-74
2022/04/10 07:49:21;;;;;;;29.80;4.53;;;6.20;99.90;;;;;;5031245;28;20048;-75
2022/04/10 07:51:47;;;;;;;28.40;4.68;;;6.30;99.90;;;;;;5031141;28;20534;-73
2022/04/10 07:54:12;;;;;;;29.23;4.20;;;6.50;99.90;;;;;;5031315;28;20513;-74
2022/04/10 07:56:38;;;;;;;38.65;4.78;;;6.70;99.90;;;;;;5030193;28;20585;-75
2022/04/10 07:59:03;;;;;;;32.17;4.18;;;6.90;99.90;;;;;;5035337;28;20029;-77
2022/04/10 08:01:29;;;;;;;22.33;4.22;;;7.10;99.90;;;;;;5035374;28;20037;-73
2022/04/10 08:03:54;;;;;;;28.30;4.15;;;7.10;99.90;;;;;;5036317;28;20033;-74
2022/04/10 08:06:20;;;;;;;32.33;4.43;;;7.10;99.90;;;;;;5035560;28;20052;-73
2022/04/10 08:08:45;;;;;;;30.42;4.00;;;7.00;99.90;;;;;;5035100;28;20033;-74
2022/04/10 08:11:11;;;;;;;29.83;3.75;;;7.10;99.90;;;;;;5035123;28;20659;-75
2022/04/10 08:13:37;;;;;;;26.02;5.10;;;6.90;99.90;;;;;;5038113;28;20025;-72
2022/04/10 08:16:03;;;;;;;25.52;3.95;;;6.80;99.90;;;;;;5038022;28;20553;-74
2022/04/10 08:18:29;;;;;;;21.10;4.18;;;6.80;99.90;;;;;;5038874;28;20024;-75
2022/04/10 08:20:54;;;;;;;26.25;3.55;;;6.70;99.90;;;;;;5036490;28;20025;-76
2022/04/10 08:23:20;;;;;;;25.38;4.13;;;6.90;99.90;;;;;;5034862;28;20025;-75
2022/04/10 08:25:46;;;;;;;23.58;4.05;;;7.10;99.90;;;;;;5034228;28;20022;-74
2022/04/10 08:28:12;;;;;;;19.08;3.50;;;7.20;99.90;;;;;;5033868;28;20486;-73
2022/04/10 08:30:39;;;;;;;22.73;3.20;;;7.20;99.90;;;;;;5034465;28;20025;-75
2022/04/10 08:33:05;;;;;;;21.33;3.83;;;7.30;99.90;;;;;;5036214;28;20014;-77
2022/04/10 08:35:31;;;;;;;19.10;2.85;;;7.30;99.90;;;;;;5035173;28;20071;-78
2022/04/10 08:37:57;;;;;;;17.20;2.70;;;7.50;99.90;;;;;;5038154;28;20155;-79
2022/04/10 08:40:23;;;;;;;22.05;3.38;;;7.60;99.90;;;;;;5035040;28;20399;-76
2022/04/10 08:42:49;;;;;;;19.52;2.67;;;7.70;99.90;;;;;;5036154;28;20025;-78
2022/04/10 08:45:22;;;;;;;26.95;3.10;;;7.70;99.90;;;;;;5036173;28;20516;-78
2022/04/10 08:47:48;;;;;;;20.42;3.65;;;7.80;99.90;;;;;;5033894;28;20458;-75
2022/04/10 08:50:14;;;;;;;17.02;3.28;;;7.90;99.90;;;;;;5033918;28;20045;-74
2022/04/10 08:52:40;;;;;;;19.77;3.53;;;8.00;99.90;;;;;;5034941;28;20029;-75
2022/04/10 08:55:06;;;;;;;17.70;3.13;;;8.10;99.90;;;;;;5035710;28;20040;-77
2022/04/10 08:57:32;;;;;;;29.95;5.03;;;8.10;99.90;;;;;;5033697;28;20018;-74
2022/04/10 08:59:58;;;;;;;24.60;3.15;;;8.10;99.90;;;;;;5033756;28;20078;-73
2022/04/10 09:02:24;;;;;;;31.45;3.30;;;8.20;99.90;;;;;;5034704;28;20033;-72
2022/04/10 09:04:50;;;;;;;36.33;4.55;;;8.30;99.90;;;;;;5033775;28;20018;-74
2022/04/10 09:07:15;;;;;;;20.33;2.88;;;8.40;99.90;;;;;;5034131;28;20045;-74
2022/04/10 09:09:51;;;;;;;20.55;3.33;;;8.60;99.90;;;;;;5033510;28;20175;-73
2022/04/10 09:12:18;;;;;;;18.77;3.00;;;9.10;99.90;;;;;;5032870;28;20025;-75
2022/04/10 09:14:43;;;;;;;18.48;2.83;;;10.30;99.90;;;;;;5033881;28;20188;-73
2022/04/10 09:17:15;;;;;;;19.23;3.80;;;10.50;99.90;;;;;;5034092;28;20092;-75
2022/04/10 09:19:46;;;;;;;16.75;2.63;;;11.30;99.90;;;;;;5033227;28;20027;-74
2022/04/10 09:22:35;;;;;;;18.88;3.15;;;12.00;99.90;;;;;;5032799;28;20426;-74
2022/04/10 09:25:05;;;;;;;18.75;5.47;;;12.70;99.90;;;;;;5034403;28;20033;-74
2022/04/10 09:27:45;;;;;;;17.55;3.40;;;13.60;99.90;;;;;;5034390;28;20026;-75
2022/04/10 09:30:14;;;;;;;14.70;3.28;;;14.10;99.90;;;;;;5035075;28;20032;-74
2022/04/10 09:32:44;;;;;;;23.90;3.25;;;14.10;99.90;;;;;;5033928;28;20037;-75
2022/04/10 09:35:12;;;;;;;15.82;2.85;;;14.10;99.90;;;;;;5035740;28;20029;-74
2022/04/10 09:37:46;;;;;;;16.25;3.60;;;13.90;99.90;;;;;;5033939;28;20022;-75
2022/04/10 09:40:32;;;;;;;19.75;3.78;;;13.60;99.90;;;;;;5032762;28;20021;-74
2022/04/10 09:43:10;;;;;;;15.57;2.90;;;12.90;99.90;;;;;;5032928;28;20040;-75
2022/04/10 09:45:41;;;;;;;23.15;3.28;;;12.70;99.90;;;;;;5032090;28;20079;-74
2022/04/10 09:48:27;;;;;;;13.73;3.30;;;12.40;99.90;;;;;;5032501;28;20033;-74
2022/04/10 09:51:03;;;;;;;23.05;3.28;;;12.40;99.90;;;;;;5031845;28;20058;-75
2022/04/10 09:53:30;;;;;;;23.60;3.67;;;12.40;99.90;;;;;;5032488;28;20022;-75
2022/04/10 09:55:57;;;;;;;105.32;29.13;;;12.10;99.90;;;;;;5032389;28;20024;-74
2022/04/10 09:58:25;;;;;;;36.05;7.28;;;11.40;99.90;;;;;;5036097;28;20018;-75
2022/04/10 10:00:54;;;;;;;33.05;5.93;;;11.10;99.90;;;;;;5039053;28;20044;-74
2022/04/10 10:03:21;;;;;;;30.70;5.20;;;11.00;99.90;;;;;;5036289;28;20029;-75
2022/04/10 10:05:52;;;;;;;18.48;3.15;;;11.00;99.90;;;;;;5033458;28;20021;-74
2022/04/10 10:08:18;;;;;;;29.33;4.05;;;11.20;99.90;;;;;;5032854;28;20398;-75
2022/04/10 10:10:45;;;;;;;14.18;2.78;;;11.20;99.90;;;;;;5032789;28;20084;-75
2022/04/10 10:13:13;;;;;;;19.65;3.58;;;11.20;99.90;;;;;;5034501;28;20100;-74
2022/04/10 10:15:40;;;;;;;15.77;2.75;;;11.20;99.90;;;;;;5031673;28;20014;-75
2022/04/10 10:18:11;;;;;;;20.25;3.17;;;11.20;99.90;;;;;;5027447;28;20088;-74
2022/04/10 10:20:38;;;;;;;19.55;2.78;;;11.10;99.90;;;;;;5031933;28;20592;-75
2022/04/10 10:23:08;;;;;;;18.55;3.22;;;11.00;99.90;;;;;;5032815;28;20096;-74
2022/04/10 10:25:39;;;;;;;19.33;3.58;;;10.90;99.90;;;;;;5030188;28;20010;-75
2022/04/10 10:28:07;;;;;;;18.08;2.85;;;10.90;99.90;;;;;;5024870;28;20096;-77
2022/04/10 10:30:53;;;;;;;23.38;3.90;;;11.10;99.90;;;;;;5029028;28;20036;-76
2022/04/10 10:33:23;;;;;;;17.40;2.97;;;11.10;99.90;;;;;;5023057;28;20145;-76
2022/04/10 10:35:51;;;;;;;16.63;3.25;;;11.20;99.90;;;;;;5031427;28;20041;-76
2022/04/10 10:38:22;;;;;;;16.08;3.13;;;11.10;99.90;;;;;;5028548;28;20014;-77
2022/04/10 10:41:07;;;;;;;14.07;2.30;;;11.20;99.90;;;;;;5026761;28;20099;-76
2022/04/10 10:43:32;;;;;;;16.35;3.20;;;11.40;99.90;;;;;;5022618;28;20026;-76
2022/04/10 10:45:58;;;;;;;16.45;3.22;;;11.30;99.90;;;;;;5028360;28;20025;-76
2022/04/10 10:48:32;;;;;;;16.05;3.15;;;11.50;99.90;;;;;;5027730;28;20029;-76
2022/04/10 10:51:09;;;;;;;15.68;3.08;;;11.70;99.90;;;;;;5027083;28;20025;-75
2022/04/10 10:53:48;;;;;;;20.33;2.67;;;11.90;99.90;;;;;;5023763;28;20395;-75
2022/04/10 10:56:33;;;;;;;17.17;3.05;;;11.90;99.90;;;;;;5027026;28;20021;-75
2022/04/10 10:59:25;;;;;;;15.10;2.85;;;11.80;99.90;;;;;;5030675;28;20076;-76
2022/04/10 11:01:57;;;;;;;20.42;3.15;;;11.80;99.90;;;;;;5027292;28;20071;-76
2022/04/10 11:04:25;;;;;;;15.15;2.80;;;11.80;99.90;;;;;;5029783;28;20025;-76
2022/04/10 11:06:51;;;;;;;22.48;3.42;;;12.00;99.90;;;;;;5029866;28;20112;-75
2022/04/10 11:09:31;;;;;;;23.17;3.85;;;12.00;99.90;;;;;;5028223;28;20100;-76
2022/04/10 11:11:58;;;;;;;16.58;3.00;;;12.10;99.90;;;;;;5019320;28;20084;-75
2022/04/10 11:14:31;;;;;;;14.23;2.40;;;11.90;99.90;;;;;;5031474;28;20391;-75
2022/04/10 11:17:30;;;;;;;16.77;2.90;;;11.40;99.90;;;;;;5031934;28;20017;-74
2022/04/10 11:20:08;;;;;;;19.30;3.00;;;10.60;99.90;;;;;;5019995;28;20041;-75
2022/04/10 11:22:39;;;;;;;19.58;2.92;;;9.80;99.90;;;;;;5031279;28;20029;-75
2022/04/10 11:25:08;;;;;;;17.75;2.28;;;9.20;99.90;;;;;;5031637;28;20018;-76
2022/04/10 11:27:57;;;;;;;15.18;2.72;;;8.80;99.90;;;;;;5028079;28;20029;-74
2022/04/10 11:30:33;;;;;;;14.80;2.67;;;8.70;99.90;;;;;;5028451;28;20029;-75
2022/04/10 11:32:58;;;;;;;14.25;2.50;;;8.80;99.90;;;;;;5025039;28;20746;-74
2022/04/10 11:35:28;;;;;;;13.88;2.08;;;9.50;99.90;;;;;;5028042;28;20026;-74
2022/04/10 11:38:09;;;;;;;11.88;1.90;;;10.70;99.90;;;;;;5030706;28;20136;-74
2022/04/10 11:40:39;;;;;;;13.55;2.10;;;12.10;99.90;;;;;;5035616;28;20486;-75
2022/04/10 11:43:07;;;;;;;9.35;2.13;;;13.40;99.90;;;;;;5029544;28;20029;-74
2022/04/10 11:45:33;;;;;;;13.55;2.22;;;14.40;99.90;;;;;;5027192;28;20495;-75
2022/04/10 11:47:59;;;;;;;10.93;2.30;;;15.40;99.90;;;;;;5029812;28;20025;-74
2022/04/10 11:50:27;;;;;;;14.18;2.53;;;16.30;98.80;;;;;;5031982;28;20013;-75
2022/04/10 11:53:06;;;;;;;15.15;2.70;;;17.10;96.30;;;;;;5031276;28;20027;-76
2022/04/10 11:55:41;;;;;;;20.92;5.68;;;17.00;93.70;;;;;;5029425;28;20093;-76
2022/04/10 11:58:25;;;;;;;21.98;3.25;;;17.30;92.70;;;;;;5030299;28;20022;-76
2022/04/10 12:00:56;;;;;;;11.73;2.70;;;17.30;92.60;;;;;;5027894;28;20091;-77
2022/04/10 12:03:26;;;;;;;20.38;6.15;;;17.00;91.60;;;;;;5043226;28;20029;-74
2022/04/10 12:05:53;;;;;;;17.33;3.00;;;17.50;87.80;;;;;;5028403;28;20037;-76
2022/04/10 12:08:19;;;;;;;15.27;2.65;;;17.90;81.10;;;;;;5028726;28;20029;-75
2022/04/10 12:10:56;;;;;;;17.02;3.15;;;17.50;79.00;;;;;;5029948;28;20544;-75
2022/04/10 12:13:34;;;;;;;15.27;3.22;;;17.60;77.20;;;;;;5029372;28;20697;-75
2022/04/10 12:16:29;;;;;;;10.38;2.25;;;17.00;78.90;;;;;;5029849;28;20053;-76
2022/04/10 12:18:56;;;;;;;8.25;2.55;;;15.00;91.90;;;;;;5011523;28;20058;-74
2022/04/10 12:21:23;;;;;;;13.70;2.80;;;15.20;94.70;;;;;;5032755;28;20445;-74
2022/04/10 12:23:59;;;;;;;10.45;2.00;;;15.90;92.50;;;;;;5038177;28;20025;-74
2022/04/10 12:26:26;;;;;;;9.32;2.20;;;17.00;90.50;;;;;;5035449;28;20033;-75
2022/04/10 12:28:52;;;;;;;14.70;2.83;;;17.90;85.30;;;;;;5035155;28;20028;-75
2022/04/10 12:31:22;;;;;;;13.13;2.53;;;18.10;80.40;;;;;;5034648;28;20021;-73
2022/04/10 12:33:47;;;;;;;15.48;2.58;;;17.70;80.60;;;;;;5035647;28;20017;-74
2022/04/10 12:36:23;;;;;;;13.77;2.67;;;16.90;81.60;;;;;;5034287;28;20029;-73
2022/04/10 12:38:52;;;;;;;10.82;2.30;;;15.20;88.30;;;;;;5034158;28;20079;-74
2022/04/10 12:41:29;;;;;;;15.63;2.65;;;14.40;90.60;;;;;;5034240;28;20029;-74
2022/04/10 12:44:02;;;;;;;14.80;2.97;;;15.40;91.70;;;;;;5034358;28;20418;-75
2022/04/10 12:46:37;;;;;;;12.98;3.55;;;16.30;89.90;;;;;;5033943;28;20032;-73
2022/04/10 12:49:13;;;;;;;12.23;2.60;;;17.70;86.50;;;;;;5033250;28;20036;-73
2022/04/10 12:51:59;;;;;;;14.27;2.90;;;19.10;81.80;;;;;;5034728;28;20466;-75
2022/04/10 12:54:42;;;;;;;12.02;2.78;;;20.60;76.00;;;;;;5034926;28;20074;-78